Airfield :
LOGIN :

Register | Disclaimer

   EN    FR    IT 

 










Legend :    VFR   Marginal VFR   IFR   Intensive IFR   Very Intensive IFR
Visi :
Ceiling :
>= 8 km
>= 3000ft
5 to 8 km
1000 to 3000 ft
1500m to 5 km
500 to 1000 ft
800 to 1500m
200 to 500 ft
< 800m
< 200 ft
Symbols :   Thunderstorms  Fog  Heavy snow  Heavy precipitations  Wind > 20 kt
SIGMETs :     Misc.  Thunderstorms  Icing  Turbulence  Mountain Waves  Volcanic Ashes







- Airport Elevation : 197 ft
- IATA code : XOG
- Download approach charts


LFMO - Orange

CURRENT METAR :
  • 210100Z AUTO 00000KT 8000 BKN023 OVC036 17/15 Q1020 TEMPO 3000 BR BKN014

EXPIRED METARs :
  • 210030Z AUTO 00000KT 8000 BKN020 BKN026 OVC033 18/16 Q1020 TEMPO 3000 BR BKN014
  • 210000Z AUTO 10001KT 8000 BKN025 OVC033 18/16 Q1020 TEMPO BKN014
  • 202330Z AUTO 13001KT 7000 BKN019 OVC025 18/16 Q1020 TEMPO BKN014
  • 202300Z AUTO 11001KT 7000 OVC019 18/16 Q1021 TEMPO BKN014
  • 202230Z AUTO 14002KT 7000 FEW009 OVC020 17/15 Q1021 TEMPO BKN014

TAF TAF LFMO
Valid from the 20 at 21:00 until the 21 at 21:00 UTC


202000Z 2021/2121 VRB02KT 9999 SCT030 SCT050 OVC170
TEMPO 2021/2102 BKN014
PROB30
TEMPO 2102/2104 3000 BR
BECMG 2104/2105 BKN040
BECMG 2110/2112 20010KT
TEMPO 2115/2118 4000 SHRA BKN040TCU
BECMG 2118/2120 VRB02KT
No reported NOTAMs for that airfield.



MET'MAP, your aeronautical weather chart ! - Copyright ORBIFLY December 2007 - Disclaimer

ORBIFLY MET'MAP TEAM :

Programming & Development : Alexandra Zaïnal
Concept & Development : Baudouin d'Aumeries
Co-Development & Prog : Marc-Olivier Méhu
Technical & hardware support : Manuel Goepfert

Contact : metmap@orbifly.com




SOURCES & CREDITS :

   NOAA